Time;durP1;ratioP1;P1;durP2;ratioP2;P2;SDS_P1;SDS_P2;PMS_P1;PMS_P2;Temp;Humidity;BMP_temperature;BMP_pressure;BME280_temperature;BME280_humidity;BME280_pressure;Samples;Min_cycle;Max_cycle;Signal;HPM_P1;HPM_P2
2023/10/24 00:00:30;;;;;;;40.92;26.88;;;20.40;71.60;;;;;;5113814;28;20046;-56
2023/10/24 00:02:56;;;;;;;40.92;27.05;;;20.40;71.70;;;;;;5113426;28;20076;-55
2023/10/24 00:05:22;;;;;;;41.67;25.80;;;20.30;71.60;;;;;;5095308;28;20039;-56
2023/10/24 00:07:49;;;;;;;40.03;26.15;;;20.40;71.80;;;;;;5095442;28;20027;-54
2023/10/24 00:10:16;;;;;;;42.08;26.17;;;20.30;71.60;;;;;;5113673;28;20040;-53
2023/10/24 00:12:42;;;;;;;40.65;25.90;;;20.30;71.70;;;;;;5113152;28;20028;-55
2023/10/24 00:15:08;;;;;;;36.83;24.30;;;20.30;71.80;;;;;;5113447;28;20024;-55
2023/10/24 00:17:34;;;;;;;35.55;25.10;;;20.30;71.80;;;;;;5113374;28;20024;-54
2023/10/24 00:19:59;;;;;;;34.28;23.75;;;20.30;71.80;;;;;;5113376;28;20487;-54
2023/10/24 00:22:25;;;;;;;38.67;24.55;;;20.30;71.60;;;;;;5113051;28;20077;-55
2023/10/24 00:24:51;;;;;;;38.80;24.42;;;20.30;71.60;;;;;;5113033;28;20031;-53
2023/10/24 00:27:17;;;;;;;35.17;24.10;;;20.30;71.80;;;;;;5113177;28;20031;-55
2023/10/24 00:29:43;;;;;;;36.25;22.67;;;20.30;71.70;;;;;;5095170;28;20024;-52
2023/10/24 00:32:11;;;;;;;36.13;24.23;;;20.30;71.50;;;;;;5112009;28;20036;-52
2023/10/24 00:34:38;;;;;;;33.33;22.67;;;20.30;71.70;;;;;;5113348;28;20077;-51
2023/10/24 00:37:04;;;;;;;34.38;22.27;;;20.30;71.50;;;;;;5112957;28;20020;-48
2023/10/24 00:39:30;;;;;;;34.60;22.42;;;20.30;71.60;;;;;;5112978;28;20048;-53
2023/10/24 00:41:55;;;;;;;29.75;21.25;;;20.30;71.50;;;;;;5094528;28;20031;-50
2023/10/24 00:44:21;;;;;;;33.05;22.17;;;20.30;71.50;;;;;;5094587;28;20660;-53
2023/10/24 00:46:48;;;;;;;31.83;20.85;;;20.30;71.40;;;;;;5112742;28;20452;-53
2023/10/24 00:49:14;;;;;;;33.15;21.77;;;20.30;71.70;;;;;;5094643;28;20036;-55
2023/10/24 00:51:41;;;;;;;31.00;20.55;;;20.30;71.50;;;;;;5094403;28;20031;-51
2023/10/24 00:54:09;;;;;;;32.40;20.50;;;20.30;71.80;;;;;;5094527;28;20440;-50
2023/10/24 00:56:35;;;;;;;28.85;20.45;;;20.30;71.60;;;;;;5112683;28;20398;-51
2023/10/24 00:59:02;;;;;;;31.45;20.83;;;20.30;71.40;;;;;;5112662;28;20031;-51
2023/10/24 01:01:29;;;;;;;30.45;19.77;;;20.30;71.40;;;;;;5077373;28;20024;-53
2023/10/24 01:03:56;;;;;;;31.35;20.10;;;20.30;71.50;;;;;;5112481;28;20405;-54
2023/10/24 01:06:22;;;;;;;31.67;20.45;;;20.30;71.40;;;;;;5094265;28;20035;-49
2023/10/24 01:08:48;;;;;;;31.00;20.42;;;20.30;71.60;;;;;;5094283;28;20106;-50
2023/10/24 01:11:14;;;;;;;29.77;19.52;;;20.30;71.40;;;;;;5112122;28;20487;-52
2023/10/24 01:13:40;;;;;;;29.08;19.05;;;20.30;71.50;;;;;;5112504;28;20432;-55
2023/10/24 01:16:06;;;;;;;27.40;18.42;;;20.30;71.40;;;;;;5094302;28;20027;-51
2023/10/24 01:18:32;;;;;;;26.85;18.10;;;20.30;71.40;;;;;;5094130;28;20069;-50
2023/10/24 01:20:58;;;;;;;27.58;18.60;;;20.30;71.50;;;;;;5093862;28;20028;-48
2023/10/24 01:23:27;;;;;;;29.20;17.70;;;20.30;71.50;;;;;;5112259;28;20030;-52
2023/10/24 01:25:55;;;;;;;32.92;17.77;;;20.30;71.80;;;;;;5100119;22;20048;-59
2023/10/24 01:28:21;;;;;;;29.48;18.15;;;20.30;71.30;;;;;;5071416;28;20408;-60
2023/10/24 01:30:47;;;;;;;29.38;18.05;;;20.30;71.30;;;;;;5071923;28;20024;-57
2023/10/24 01:33:13;;;;;;;27.60;17.80;;;20.30;71.50;;;;;;5053671;28;20028;-57
2023/10/24 01:35:39;;;;;;;25.80;17.75;;;20.30;71.60;;;;;;5071464;28;20394;-59
2023/10/24 01:38:04;;;;;;;27.30;17.80;;;20.30;71.60;;;;;;5053600;28;20016;-58
2023/10/24 01:40:30;;;;;;;28.95;17.70;;;20.30;71.50;;;;;;5071477;28;20032;-57
2023/10/24 01:42:56;;;;;;;28.00;16.08;;;20.30;71.60;;;;;;5070889;28;20033;-54
2023/10/24 01:45:22;;;;;;;29.77;16.70;;;20.30;71.60;;;;;;5053484;28;20028;-59
2023/10/24 01:47:47;;;;;;;26.85;16.35;;;20.30;71.40;;;;;;5053461;28;20032;-58
2023/10/24 01:50:13;;;;;;;27.17;16.05;;;20.30;71.80;;;;;;5071410;28;20119;-56
2023/10/24 01:52:39;;;;;;;25.77;16.10;;;20.30;71.00;;;;;;5071096;28;20032;-56
2023/10/24 01:55:05;;;;;;;24.35;15.57;;;20.30;71.70;;;;;;5071386;28;20111;-54
2023/10/24 01:57:32;;;;;;;23.20;15.80;;;20.30;71.80;;;;;;5071312;28;20031;-58
2023/10/24 01:59:58;;;;;;;26.10;16.90;;;20.30;71.10;;;;;;5053732;28;20483;-57
2023/10/24 02:02:23;;;;;;;22.98;15.38;;;20.30;71.80;;;;;;5053113;28;20516;-58
2023/10/24 02:04:49;;;;;;;24.55;15.57;;;20.30;71.50;;;;;;5053338;28;20488;-56
2023/10/24 02:07:15;;;;;;;24.23;15.43;;;20.30;70.90;;;;;;5071265;28;20021;-57
2023/10/24 02:09:41;;;;;;;24.20;15.40;;;20.30;71.80;;;;;;5053601;28;20024;-59
2023/10/24 02:12:07;;;;;;;27.33;15.43;;;20.30;71.70;;;;;;5070817;28;20107;-56
2023/10/24 02:14:32;;;;;;;24.08;15.48;;;20.30;71.50;;;;;;5053402;28;20025;-56
2023/10/24 02:16:58;;;;;;;25.83;14.90;;;20.30;71.50;;;;;;5053215;28;20458;-57
2023/10/24 02:19:25;;;;;;;23.90;14.90;;;20.30;71.60;;;;;;5071143;28;20025;-56
2023/10/24 02:21:51;;;;;;;21.67;14.63;;;20.30;71.00;;;;;;5070791;28;20024;-59
2023/10/24 02:24:17;;;;;;;28.75;14.77;;;20.30;71.40;;;;;;5053285;28;20453;-59
2023/10/24 02:26:43;;;;;;;22.08;14.02;;;20.30;71.60;;;;;;5071112;28;20121;-60
2023/10/24 02:29:09;;;;;;;23.25;14.20;;;20.30;71.40;;;;;;5071097;28;20032;-60
2023/10/24 02:31:35;;;;;;;24.85;14.57;;;20.30;71.00;;;;;;5070687;28;20031;-60
2023/10/24 02:34:00;;;;;;;20.60;13.45;;;20.30;71.20;;;;;;5071016;28;20112;-60
2023/10/24 02:36:26;;;;;;;21.17;13.50;;;20.30;71.00;;;;;;5053132;28;20032;-60
2023/10/24 02:38:52;;;;;;;24.35;13.25;;;20.30;71.20;;;;;;5070882;28;20050;-60
2023/10/24 02:41:18;;;;;;;22.80;13.52;;;20.20;71.50;;;;;;5052694;28;20016;-59
2023/10/24 02:43:43;;;;;;;21.77;12.63;;;20.30;71.20;;;;;;5071092;28;20384;-60
2023/10/24 02:46:09;;;;;;;20.50;13.35;;;20.30;71.20;;;;;;5070834;28;20055;-60
2023/10/24 02:48:35;;;;;;;20.48;13.07;;;20.20;71.20;;;;;;5070884;28;20437;-60
2023/10/24 02:51:02;;;;;;;21.33;13.25;;;20.30;71.80;;;;;;5070484;28;20032;-59
2023/10/24 02:53:29;;;;;;;22.73;12.77;;;20.20;71.60;;;;;;5070719;28;20491;-60
2023/10/24 02:55:55;;;;;;;22.75;13.18;;;20.20;72.00;;;;;;5072225;28;20029;-60
2023/10/24 02:58:20;;;;;;;20.55;13.10;;;20.20;71.50;;;;;;5056495;28;20024;-59
2023/10/24 03:00:46;;;;;;;20.73;12.40;;;20.20;71.30;;;;;;5074241;28;20016;-59
2023/10/24 03:03:13;;;;;;;19.23;12.07;;;20.20;71.40;;;;;;5073917;28;20508;-60
2023/10/24 03:05:40;;;;;;;21.23;11.90;;;20.20;71.50;;;;;;5056266;28;20112;-57
2023/10/24 03:08:06;;;;;;;17.50;11.93;;;20.20;71.00;;;;;;5056174;28;20128;-60
2023/10/24 03:10:38;;;;;;;21.23;12.55;;;20.20;70.90;;;;;;5074074;28;20032;-60
2023/10/24 03:13:04;;;;;;;20.58;12.27;;;20.20;71.50;;;;;;5073706;28;20064;-59
2023/10/24 03:15:30;;;;;;;19.52;11.30;;;20.20;71.10;;;;;;5074015;28;20432;-59
2023/10/24 03:17:55;;;;;;;17.35;10.30;;;20.20;71.20;;;;;;5073959;28;20059;-60
2023/10/24 03:20:21;;;;;;;19.83;11.48;;;20.20;71.10;;;;;;5073900;28;20032;-60
2023/10/24 03:22:48;;;;;;;17.50;10.68;;;20.20;71.30;;;;;;5055565;28;20037;-60
2023/10/24 03:25:13;;;;;;;17.92;11.27;;;20.20;70.80;;;;;;5073702;28;20136;-60
2023/10/24 03:27:40;;;;;;;17.95;10.93;;;20.20;71.10;;;;;;5073837;28;20097;-60
2023/10/24 03:30:06;;;;;;;21.05;10.82;;;20.20;71.00;;;;;;5055886;28;20507;-60
2023/10/24 03:32:32;;;;;;;19.73;10.85;;;20.20;70.60;;;;;;5073326;28;20025;-60
2023/10/24 03:35:00;;;;;;;21.65;10.45;;;20.20;70.70;;;;;;5055731;28;20089;-59
2023/10/24 03:37:26;;;;;;;17.48;11.10;;;20.20;70.50;;;;;;5073615;28;20017;-59
2023/10/24 03:39:52;;;;;;;17.65;10.20;;;20.20;71.10;;;;;;5073670;28;20032;-60
2023/10/24 03:42:17;;;;;;;17.65;10.00;;;20.20;70.40;;;;;;5073128;28;20033;-58
2023/10/24 03:44:43;;;;;;;16.90;9.57;;;20.20;70.40;;;;;;5073333;28;20023;-60
2023/10/24 03:47:09;;;;;;;19.42;9.98;;;20.20;70.20;;;;;;5074890;28;20032;-59
2023/10/24 03:49:35;;;;;;;16.65;10.43;;;20.20;70.00;;;;;;5076101;28;20036;-60
2023/10/24 03:52:02;;;;;;;18.08;10.23;;;20.20;70.00;;;;;;5073098;28;20037;-58
2023/10/24 03:54:29;;;;;;;16.92;9.88;;;20.20;69.90;;;;;;5073182;28;20024;-56
2023/10/24 03:56:55;;;;;;;19.20;10.32;;;20.30;69.90;;;;;;5073336;28;20016;-58
2023/10/24 03:59:21;;;;;;;16.83;10.02;;;20.20;70.00;;;;;;5073090;28;20075;-57
2023/10/24 04:01:47;;;;;;;18.42;9.82;;;20.20;70.10;;;;;;5072778;28;20020;-55
2023/10/24 04:04:12;;;;;;;20.45;9.93;;;20.30;69.90;;;;;;5072990;28;20111;-58
2023/10/24 04:06:38;;;;;;;20.17;10.05;;;20.20;69.70;;;;;;5072876;28;20510;-59
2023/10/24 04:09:04;;;;;;;15.98;10.23;;;20.20;69.60;;;;;;5073044;28;20586;-59
2023/10/24 04:11:32;;;;;;;17.17;9.73;;;20.20;69.50;;;;;;5072659;28;20105;-58
2023/10/24 04:13:58;;;;;;;17.40;9.80;;;20.30;69.90;;;;;;5072689;28;20031;-59
2023/10/24 04:16:24;;;;;;;15.02;9.07;;;20.30;69.50;;;;;;5072826;28;20021;-58
2023/10/24 04:18:50;;;;;;;15.63;9.30;;;20.20;69.40;;;;;;5072755;28;20396;-58
2023/10/24 04:21:17;;;;;;;19.23;9.93;;;20.20;69.50;;;;;;5072608;28;20035;-56
2023/10/24 04:23:44;;;;;;;16.65;9.40;;;20.30;69.40;;;;;;5072638;28;20033;-58
2023/10/24 04:26:10;;;;;;;15.65;9.05;;;20.30;69.60;;;;;;5072323;28;20457;-57
2023/10/24 04:28:36;;;;;;;15.55;9.18;;;20.30;69.60;;;;;;5072517;28;20108;-58
2023/10/24 04:31:02;;;;;;;16.75;9.00;;;20.30;69.70;;;;;;5071902;28;20109;-59
2023/10/24 04:33:28;;;;;;;17.08;8.50;;;20.30;69.50;;;;;;5072244;28;20028;-56
2023/10/24 04:35:54;;;;;;;14.48;8.02;;;20.30;69.40;;;;;;5072305;28;20031;-54
2023/10/24 04:38:20;;;;;;;16.48;9.02;;;20.30;69.50;;;;;;5054639;28;20395;-58
2023/10/24 04:40:49;;;;;;;14.65;8.75;;;20.30;69.60;;;;;;5072511;28;20043;-57
2023/10/24 04:43:15;;;;;;;19.30;9.27;;;20.30;69.50;;;;;;5054123;28;20028;-54
2023/10/24 04:45:41;;;;;;;15.48;8.90;;;20.30;69.60;;;;;;5072034;28;20077;-55
2023/10/24 04:48:07;;;;;;;15.80;8.82;;;20.30;69.50;;;;;;5072110;28;20078;-56
2023/10/24 04:50:38;;;;;;;14.02;8.07;;;20.30;69.40;;;;;;5054324;28;20036;-56
2023/10/24 04:53:05;;;;;;;16.20;8.40;;;20.30;69.40;;;;;;5072057;28;20036;-54
2023/10/24 04:55:31;;;;;;;15.57;8.18;;;20.30;69.70;;;;;;5071968;28;20107;-57
2023/10/24 04:57:58;;;;;;;14.82;7.93;;;20.30;70.00;;;;;;5071922;28;20395;-56
2023/10/24 05:00:26;;;;;;;13.43;7.88;;;20.30;69.40;;;;;;5072034;28;20399;-53
2023/10/24 05:02:53;;;;;;;16.00;8.05;;;20.30;70.00;;;;;;5071686;28;20111;-57
2023/10/24 05:05:18;;;;;;;14.73;7.97;;;20.30;69.50;;;;;;5071801;28;20483;-57
2023/10/24 05:07:44;;;;;;;13.27;7.85;;;20.30;69.70;;;;;;5071902;28;20028;-55
2023/10/24 05:10:10;;;;;;;15.23;8.13;;;20.30;69.60;;;;;;5071833;28;20515;-55
2023/10/24 05:12:36;;;;;;;12.23;7.50;;;20.30;69.60;;;;;;5071363;28;20078;-55
2023/10/24 05:15:03;;;;;;;13.77;8.07;;;20.30;69.70;;;;;;5071601;28;20032;-53
2023/10/24 05:17:30;;;;;;;14.30;8.02;;;20.30;69.40;;;;;;5071819;28;20417;-58
2023/10/24 05:20:03;;;;;;;13.52;8.57;;;20.30;69.60;;;;;;5071245;28;20067;-55
2023/10/24 05:22:31;;;;;;;16.75;8.20;;;20.30;69.60;;;;;;5071539;28;20043;-55
2023/10/24 05:24:57;;;;;;;14.40;8.48;;;20.30;69.60;;;;;;5071501;28;20032;-57
2023/10/24 05:27:23;;;;;;;13.40;7.80;;;20.30;69.60;;;;;;5071525;28;20096;-54
2023/10/24 05:29:49;;;;;;;13.05;7.35;;;20.20;69.70;;;;;;5071425;28;20060;-56
2023/10/24 05:32:15;;;;;;;14.38;7.93;;;20.30;69.70;;;;;;5071119;28;20036;-57
2023/10/24 05:34:41;;;;;;;14.45;7.60;;;20.30;69.60;;;;;;5071435;28;20499;-54
2023/10/24 05:37:06;;;;;;;13.18;7.80;;;20.20;69.50;;;;;;5071447;28;20036;-53
2023/10/24 05:39:32;;;;;;;15.20;7.82;;;20.30;69.60;;;;;;5071456;28;20028;-53
2023/10/24 05:41:58;;;;;;;15.32;7.68;;;20.30;69.50;;;;;;5071180;28;20024;-55
2023/10/24 05:44:24;;;;;;;14.82;7.85;;;20.30;69.60;;;;;;5071422;28;20028;-56
2023/10/24 05:46:49;;;;;;;12.40;7.07;;;20.30;69.60;;;;;;5071430;28;20024;-52
2023/10/24 05:49:15;;;;;;;13.60;8.07;;;20.30;69.70;;;;;;5071479;28;20078;-55
2023/10/24 05:51:41;;;;;;;15.15;8.50;;;20.30;70.00;;;;;;5071110;28;20031;-52
2023/10/24 05:54:07;;;;;;;15.93;8.40;;;20.30;70.10;;;;;;5071417;28;20024;-53
2023/10/24 05:56:33;;;;;;;11.93;7.22;;;20.30;69.60;;;;;;5071337;28;20454;-56
2023/10/24 05:58:58;;;;;;;13.77;7.20;;;20.20;69.40;;;;;;5071276;28;20032;-56
2023/10/24 06:01:24;;;;;;;12.95;7.38;;;20.30;69.80;;;;;;5071228;28;20029;-54
2023/10/24 06:03:50;;;;;;;13.20;7.70;;;20.30;69.80;;;;;;5071382;28;20159;-55
2023/10/24 06:06:16;;;;;;;13.45;7.45;;;20.30;69.90;;;;;;5070811;28;20028;-54
2023/10/24 06:08:43;;;;;;;13.95;7.53;;;20.30;69.70;;;;;;5071374;28;20425;-57
2023/10/24 06:11:09;;;;;;;11.55;7.22;;;20.30;70.20;;;;;;5070818;28;20060;-55
2023/10/24 06:13:35;;;;;;;14.18;7.32;;;20.30;70.00;;;;;;5071141;28;20067;-57
2023/10/24 06:16:08;;;;;;;13.77;7.22;;;20.30;70.20;;;;;;5070994;28;20032;-55
2023/10/24 06:18:33;;;;;;;12.63;7.03;;;20.30;70.50;;;;;;5071126;28;20036;-55
2023/10/24 06:21:03;;;;;;;12.40;7.13;;;20.30;70.30;;;;;;5053054;28;20032;-54
2023/10/24 06:23:29;;;;;;;14.43;7.30;;;20.30;69.60;;;;;;5071090;28;20039;-55
2023/10/24 06:25:56;;;;;;;13.32;7.63;;;20.30;70.30;;;;;;5070991;28;20036;-58
2023/10/24 06:28:22;;;;;;;12.85;7.05;;;20.30;70.10;;;;;;5071042;28;20032;-56
2023/10/24 06:30:55;;;;;;;16.08;7.20;;;20.30;70.60;;;;;;5072303;28;20028;-56
2023/10/24 06:33:21;;;;;;;11.68;6.57;;;20.20;70.40;;;;;;5074461;28;20028;-58
2023/10/24 06:35:47;;;;;;;12.73;7.03;;;20.30;70.30;;;;;;5074020;28;20393;-57
2023/10/24 06:38:13;;;;;;;13.20;7.43;;;20.30;70.30;;;;;;5074634;28;20056;-57
2023/10/24 06:40:38;;;;;;;12.43;6.97;;;20.30;70.00;;;;;;5074569;28;20025;-58
2023/10/24 06:43:05;;;;;;;13.80;7.00;;;20.30;70.20;;;;;;5074286;28;20028;-58
2023/10/24 06:45:32;;;;;;;12.88;6.72;;;20.30;70.60;;;;;;5056524;28;20032;-57
2023/10/24 06:47:57;;;;;;;17.42;7.18;;;20.30;70.40;;;;;;5074517;28;20150;-59
2023/10/24 06:50:23;;;;;;;13.85;7.35;;;20.30;70.30;;;;;;5074452;28;20050;-58
2023/10/24 06:52:49;;;;;;;14.00;6.55;;;20.20;70.30;;;;;;5074112;28;20085;-55
2023/10/24 06:55:14;;;;;;;17.23;7.10;;;20.20;70.30;;;;;;5074269;28;20291;-56
2023/10/24 06:57:40;;;;;;;11.80;6.72;;;20.30;70.20;;;;;;5074315;28;20467;-57
2023/10/24 07:00:06;;;;;;;18.60;7.00;;;20.30;69.50;;;;;;5069016;28;20032;-55
2023/10/24 07:02:34;;;;;;;15.52;7.70;;;20.30;70.30;;;;;;5070317;28;20036;-56
2023/10/24 07:05:00;;;;;;;15.63;7.72;;;20.40;71.30;;;;;;5071082;28;20040;-59
2023/10/24 07:07:26;;;;;;;15.70;8.23;;;20.50;71.70;;;;;;5071224;28;20029;-54
2023/10/24 07:09:52;;;;;;;17.75;8.68;;;20.50;72.00;;;;;;5071728;28;20115;-52
2023/10/24 07:12:18;;;;;;;21.25;8.63;;;20.60;73.00;;;;;;5071363;28;20507;-55
2023/10/24 07:14:43;;;;;;;19.30;8.15;;;20.60;72.80;;;;;;5071410;28;20028;-58
2023/10/24 07:17:09;;;;;;;17.23;7.60;;;20.60;72.30;;;;;;5071908;28;20031;-59
2023/10/24 07:19:35;;;;;;;21.90;8.05;;;20.40;67.30;;;;;;5071669;28;20502;-57
2023/10/24 07:22:01;;;;;;;19.70;9.15;;;20.20;64.50;;;;;;5071355;28;20510;-59
2023/10/24 07:24:27;;;;;;;21.15;9.32;;;20.10;64.30;;;;;;5070839;28;20025;-58
2023/10/24 07:26:53;;;;;;;16.13;8.55;;;20.10;65.70;;;;;;5053695;28;20035;-57
2023/10/24 07:29:18;;;;;;;15.82;8.25;;;20.10;66.50;;;;;;5127677;22;20042;-54
2023/10/24 07:31:44;;;;;;;22.42;8.77;;;20.20;66.90;;;;;;5129153;27;20026;-55
2023/10/24 07:34:10;;;;;;;19.85;8.50;;;20.30;66.50;;;;;;5131287;27;20030;-57
2023/10/24 07:36:36;;;;;;;17.45;7.57;;;20.30;66.50;;;;;;5131115;27;20024;-57
2023/10/24 07:39:01;;;;;;;20.08;7.93;;;20.40;66.70;;;;;;5115474;27;20122;-56
2023/10/24 07:41:27;;;;;;;16.90;7.65;;;20.40;66.70;;;;;;5104154;28;21135;-57
2023/10/24 07:43:53;;;;;;;15.75;7.75;;;20.40;66.80;;;;;;5090397;28;20518;-54
2023/10/24 07:46:19;;;;;;;15.70;7.43;;;20.50;67.00;;;;;;5090002;28;20111;-53
2023/10/24 07:48:45;;;;;;;21.92;7.70;;;20.50;66.90;;;;;;5107717;28;20039;-56
2023/10/24 07:51:12;;;;;;;17.55;7.53;;;20.50;67.80;;;;;;5108006;28;20507;-54
2023/10/24 07:53:38;;;;;;;17.50;7.68;;;20.50;67.30;;;;;;5111537;28;20458;-55
2023/10/24 07:56:07;;;;;;;17.65;8.52;;;20.50;67.40;;;;;;5110500;28;20047;-57
2023/10/24 07:58:33;;;;;;;18.67;7.28;;;20.50;67.50;;;;;;5111585;28;20027;-52
2023/10/24 08:00:58;;;;;;;17.52;7.60;;;20.50;67.60;;;;;;5111125;28;20035;-58
2023/10/24 08:03:24;;;;;;;17.25;7.70;;;20.50;67.60;;;;;;5111441;28;20028;-54
2023/10/24 08:05:51;;;;;;;18.17;7.25;;;20.50;67.60;;;;;;5111359;28;20039;-56
2023/10/24 08:08:16;;;;;;;18.40;7.70;;;20.50;67.70;;;;;;5111887;28;20384;-53
2023/10/24 08:10:42;;;;;;;17.73;7.70;;;20.50;67.80;;;;;;5111428;28;20065;-53
2023/10/24 08:13:08;;;;;;;15.10;7.18;;;20.50;67.90;;;;;;5111031;28;20027;-58
2023/10/24 08:15:34;;;;;;;15.60;7.25;;;20.50;67.90;;;;;;5111331;28;20027;-57
2023/10/24 08:18:00;;;;;;;17.63;7.43;;;20.50;68.00;;;;;;5111029;28;20038;-52
2023/10/24 08:20:26;;;;;;;13.88;6.90;;;20.50;67.90;;;;;;5110381;28;20024;-58
2023/10/24 08:22:53;;;;;;;15.98;6.97;;;20.50;68.10;;;;;;5111258;28;20105;-58
2023/10/24 08:25:18;;;;;;;17.20;6.75;;;20.50;68.10;;;;;;5111051;28;20035;-57
2023/10/24 08:27:45;;;;;;;17.90;6.80;;;20.50;68.10;;;;;;5111169;28;20027;-58
2023/10/24 08:30:11;;;;;;;22.50;7.53;;;20.50;67.90;;;;;;5110873;28;20136;-58
2023/10/24 08:32:37;;;;;;;15.18;6.55;;;20.60;68.00;;;;;;5110661;28;20057;-57
2023/10/24 08:35:03;;;;;;;16.25;6.85;;;20.60;68.50;;;;;;5092853;28;20502;-58
2023/10/24 08:37:29;;;;;;;21.35;7.30;;;20.50;68.20;;;;;;5111321;28;20036;-59
2023/10/24 08:39:55;;;;;;;15.50;6.75;;;20.60;68.20;;;;;;5111037;28;20031;-58
2023/10/24 08:42:22;;;;;;;19.40;6.53;;;20.50;68.20;;;;;;5109951;28;20095;-57
2023/10/24 08:44:49;;;;;;;24.38;7.65;;;20.50;68.30;;;;;;5111345;28;20502;-55
2023/10/24 08:47:16;;;;;;;18.35;6.53;;;20.60;68.40;;;;;;5110723;28;20046;-58
2023/10/24 08:49:42;;;;;;;17.35;6.70;;;20.50;68.40;;;;;;5109833;28;20027;-58
2023/10/24 08:52:09;;;;;;;19.30;7.30;;;20.50;68.30;;;;;;5109376;28;20273;-57
2023/10/24 08:54:35;;;;;;;14.15;7.10;;;20.50;68.40;;;;;;5109315;28;20324;-55
2023/10/24 08:57:02;;;;;;;13.70;6.65;;;20.50;68.40;;;;;;5110943;28;20023;-56
2023/10/24 08:59:33;;;;;;;13.70;6.82;;;20.50;68.40;;;;;;5110687;28;20023;-56
2023/10/24 09:01:59;;;;;;;13.48;6.38;;;20.50;68.30;;;;;;5110244;28;20099;-57
2023/10/24 09:04:25;;;;;;;13.55;6.32;;;20.50;68.30;;;;;;5110391;28;20127;-56
2023/10/24 09:06:50;;;;;;;14.52;6.15;;;20.50;68.40;;;;;;5092275;28;20031;-56
2023/10/24 09:09:16;;;;;;;14.00;6.97;;;20.40;68.30;;;;;;5110243;28;20038;-55
2023/10/24 09:11:55;;;;;;;15.32;6.93;;;20.40;68.20;;;;;;5110055;28;20144;-56
2023/10/24 09:14:22;;;;;;;12.05;6.13;;;20.40;68.30;;;;;;5110363;28;20028;-55
2023/10/24 09:17:03;;;;;;;14.40;6.60;;;20.50;68.50;;;;;;5110239;28;20020;-57
2023/10/24 09:19:29;;;;;;;15.40;6.40;;;20.40;68.40;;;;;;5110412;28;20035;-55
2023/10/24 09:22:02;;;;;;;16.20;6.55;;;20.50;68.70;;;;;;5092024;28;20024;-54
2023/10/24 09:24:27;;;;;;;14.57;6.85;;;20.50;68.60;;;;;;5110332;28;20032;-51
2023/10/24 09:26:55;;;;;;;13.52;7.20;;;20.50;68.60;;;;;;5110411;28;20102;-56
2023/10/24 09:29:24;;;;;;;15.35;6.60;;;20.50;68.80;;;;;;5109913;28;20036;-54
2023/10/24 09:31:51;;;;;;;15.05;6.93;;;20.50;68.70;;;;;;5109685;28;20027;-58
2023/10/24 09:34:17;;;;;;;22.77;6.35;;;20.50;68.70;;;;;;5110090;28;20059;-52
2023/10/24 09:36:44;;;;;;;13.10;6.82;;;20.50;69.30;;;;;;5109952;28;20046;-53
2023/10/24 09:39:14;;;;;;;14.20;6.38;;;20.50;68.70;;;;;;5109797;28;20024;-55
2023/10/24 09:41:42;;;;;;;11.93;5.90;;;20.50;68.80;;;;;;5109796;28;20045;-56
2023/10/24 09:44:08;;;;;;;16.88;6.75;;;20.50;68.70;;;;;;5109865;28;20530;-53
2023/10/24 09:46:38;;;;;;;13.20;5.95;;;20.50;68.70;;;;;;5109816;28;20084;-58
2023/10/24 09:49:05;;;;;;;13.98;6.93;;;20.50;68.70;;;;;;5109844;28;20068;-56
2023/10/24 09:51:35;;;;;;;12.40;6.40;;;20.50;68.70;;;;;;5109368;28;20020;-57
2023/10/24 09:54:03;;;;;;;13.48;6.50;;;20.50;68.60;;;;;;5110045;28;20031;-56
2023/10/24 09:56:29;;;;;;;14.38;6.13;;;20.50;68.50;;;;;;5109792;28;20123;-58
2023/10/24 09:58:55;;;;;;;9.98;5.53;;;20.50;68.70;;;;;;5109789;28;20098;-55
2023/10/24 10:01:22;;;;;;;13.82;6.75;;;20.50;68.70;;;;;;5109818;28;20024;-51
2023/10/24 10:03:55;;;;;;;17.50;6.53;;;20.60;68.80;;;;;;5109858;28;20084;-55
2023/10/24 10:06:24;;;;;;;19.25;5.97;;;20.50;68.70;;;;;;5113767;28;20122;-55
2023/10/24 10:08:51;;;;;;;11.75;6.05;;;20.60;68.70;;;;;;5114084;28;20122;-57
2023/10/24 10:11:18;;;;;;;11.30;6.10;;;20.50;68.70;;;;;;5113663;28;20058;-56
2023/10/24 10:14:11;;;;;;;12.93;6.20;;;20.50;68.60;;;;;;5095895;28;20493;-54
2023/10/24 10:17:02;;;;;;;15.73;6.40;;;20.50;68.50;;;;;;5112074;28;20039;-57
2023/10/24 10:20:00;;;;;;;12.85;6.60;;;20.50;69.00;;;;;;5114141;28;20020;-56
2023/10/24 10:22:40;;;;;;;25.67;6.45;;;20.60;68.60;;;;;;5039980;28;20115;-58
2023/10/24 10:25:27;;;;;;;14.77;6.75;;;20.60;68.60;;;;;;5113715;28;20035;-57
2023/10/24 10:28:17;;;;;;;14.13;6.38;;;20.60;68.70;;;;;;5113541;28;20031;-58
2023/10/24 10:30:46;;;;;;;17.75;6.47;;;20.60;68.70;;;;;;5113709;28;20042;-58
2023/10/24 10:33:19;;;;;;;13.32;6.38;;;20.60;68.60;;;;;;5113345;28;20039;-58
2023/10/24 10:36:02;;;;;;;12.77;6.45;;;20.60;68.70;;;;;;5113631;28;20023;-58
2023/10/24 10:38:48;;;;;;;13.77;6.38;;;20.60;68.70;;;;;;5113467;28;20072;-58
2023/10/24 10:41:21;;;;;;;11.43;5.88;;;20.60;68.60;;;;;;5077708;28;20080;-58
2023/10/24 10:43:47;;;;;;;20.20;6.50;;;20.60;68.60;;;;;;5112911;28;20042;-58
2023/10/24 10:46:17;;;;;;;15.43;6.20;;;20.60;68.60;;;;;;5113195;28;20073;-58
2023/10/24 10:48:43;;;;;;;11.20;5.75;;;20.60;68.60;;;;;;5113114;28;20039;-58
2023/10/24 10:51:16;;;;;;;20.73;6.45;;;20.60;68.60;;;;;;5111303;28;20023;-57
2023/10/24 10:53:50;;;;;;;11.35;6.00;;;20.60;68.50;;;;;;5113267;28;20080;-58
2023/10/24 10:56:23;;;;;;;14.43;6.22;;;20.60;68.40;;;;;;5112038;28;20443;-58
2023/10/24 10:59:07;;;;;;;15.43;5.88;;;20.60;69.00;;;;;;5113277;28;20445;-58
2023/10/24 11:02:23;;;;;;;15.25;6.72;;;20.50;68.40;;;;;;5112896;28;20032;-58
2023/10/24 11:04:49;;;;;;;16.70;6.55;;;20.60;68.40;;;;;;5023219;28;20103;-58
2023/10/24 11:07:15;;;;;;;14.48;6.28;;;20.50;68.40;;;;;;5112841;28;20088;-57
2023/10/24 11:09:42;;;;;;;17.90;6.72;;;20.60;68.40;;;;;;5111012;28;20047;-58
2023/10/24 11:12:23;;;;;;;17.90;6.28;;;20.50;68.40;;;;;;5112196;28;20053;-56
2023/10/24 11:15:07;;;;;;;18.38;6.68;;;20.50;68.40;;;;;;5094613;28;20024;-58
2023/10/24 11:17:34;;;;;;;13.80;6.57;;;20.50;68.50;;;;;;5112079;28;20407;-58
2023/10/24 11:20:01;;;;;;;13.95;6.22;;;20.50;68.50;;;;;;5112848;28;20028;-58
2023/10/24 11:22:27;;;;;;;12.88;6.57;;;20.50;68.50;;;;;;5112597;28;20031;-55
2023/10/24 11:24:53;;;;;;;15.80;6.68;;;20.50;68.50;;;;;;5112323;28;20027;-56
2023/10/24 11:27:22;;;;;;;12.43;6.45;;;20.50;68.60;;;;;;5112231;28;20092;-58
2023/10/24 11:29:51;;;;;;;15.25;6.10;;;20.50;68.50;;;;;;5112021;28;20546;-57
2023/10/24 11:32:17;;;;;;;14.40;6.75;;;20.50;68.50;;;;;;5111910;28;20043;-57
2023/10/24 11:34:44;;;;;;;10.52;5.82;;;20.50;69.10;;;;;;5112312;28;20031;-57
2023/10/24 11:37:09;;;;;;;15.18;6.13;;;20.50;68.50;;;;;;5112268;28;20020;-57
2023/10/24 11:39:36;;;;;;;11.68;6.35;;;20.50;68.40;;;;;;5093885;28;20027;-58
2023/10/24 11:42:02;;;;;;;14.00;6.28;;;20.50;68.40;;;;;;5111821;28;20492;-53
2023/10/24 11:44:28;;;;;;;12.05;6.63;;;20.50;68.50;;;;;;5112066;28;20490;-58
2023/10/24 11:46:54;;;;;;;15.77;6.80;;;20.50;68.50;;;;;;5112056;28;20102;-57
2023/10/24 11:49:20;;;;;;;11.55;6.43;;;20.50;68.80;;;;;;5112216;28;20046;-58
2023/10/24 11:51:48;;;;;;;18.58;6.22;;;20.50;68.80;;;;;;5077070;28;20073;-55
2023/10/24 11:54:14;;;;;;;19.25;7.00;;;20.50;68.70;;;;;;5111746;28;20406;-57
2023/10/24 11:56:40;;;;;;;21.08;6.30;;;20.50;68.60;;;;;;5111624;28;20081;-53
2023/10/24 11:59:06;;;;;;;17.75;5.82;;;20.60;68.70;;;;;;5111914;28;20495;-58
2023/10/24 12:01:32;;;;;;;14.57;6.78;;;20.50;68.80;;;;;;5111757;28;20056;-56
2023/10/24 12:04:00;;;;;;;13.57;6.45;;;20.60;68.60;;;;;;5111538;28;20059;-57
2023/10/24 12:06:27;;;;;;;14.15;5.55;;;20.50;68.60;;;;;;5111799;28;20084;-58
2023/10/24 12:08:53;;;;;;;16.83;6.30;;;20.50;68.70;;;;;;5112041;28;20120;-58
2023/10/24 12:11:20;;;;;;;19.38;6.57;;;20.60;68.90;;;;;;5111527;28;20566;-58
2023/10/24 12:13:46;;;;;;;18.13;6.43;;;20.60;68.90;;;;;;5111532;28;20039;-58
2023/10/24 12:16:12;;;;;;;17.88;6.78;;;20.50;69.00;;;;;;5111388;28;20030;-58
2023/10/24 12:18:38;;;;;;;17.17;6.20;;;20.60;69.00;;;;;;5111356;28;20020;-58
2023/10/24 12:21:05;;;;;;;15.15;6.15;;;20.60;69.10;;;;;;5110918;28;20031;-58
2023/10/24 12:23:31;;;;;;;11.77;6.28;;;20.60;69.10;;;;;;5111549;28;20031;-58
2023/10/24 12:25:56;;;;;;;16.45;6.75;;;20.60;69.10;;;;;;5111250;28;20615;-58
2023/10/24 12:28:22;;;;;;;18.85;6.88;;;20.50;69.10;;;;;;5101358;28;20075;-56
2023/10/24 12:30:48;;;;;;;16.60;6.50;;;20.60;68.80;;;;;;5107587;28;20418;-55
2023/10/24 12:33:14;;;;;;;17.17;6.50;;;20.60;69.10;;;;;;5107769;28;20130;-57